createdAt,value
2023-02-17T00:02:30.058Z,96621.72
2023-02-17T00:05:16.106Z,96615.41
2023-02-17T00:08:02.017Z,96619.22
2023-02-17T00:10:58.406Z,96616.88
2023-02-17T00:13:44.812Z,96623.38
2023-02-17T00:16:30.590Z,96631.22
2023-02-17T00:19:26.653Z,96623.44
2023-02-17T00:22:12.499Z,96627.91
2023-02-17T00:24:58.202Z,96622.63
2023-02-17T00:27:43.709Z,96614.28
2023-02-17T00:30:29.492Z,96622.63
2023-02-17T00:33:15.228Z,96632.03
2023-02-17T00:36:10.906Z,96614.84
2023-02-17T00:38:58.036Z,96627.91
2023-02-17T00:41:44.442Z,96625.78
2023-02-17T00:44:30.393Z,96625.34
2023-02-17T00:47:18.213Z,96628.63
2023-02-17T00:50:07.205Z,96625.50
2023-02-17T00:52:53.934Z,96623.19
2023-02-17T00:55:39.642Z,96610.66
2023-02-17T00:58:25.646Z,96615.34
2023-02-17T01:01:15.030Z,96609.63
2023-02-17T01:04:02.047Z,96605.81
2023-02-17T01:06:56.076Z,96610.56
2023-02-17T01:09:42.544Z,96603.59
2023-02-17T01:12:34.939Z,96609.59
2023-02-17T01:15:20.612Z,96599.03
2023-02-17T01:18:08.027Z,96604.34
2023-02-17T01:20:54.391Z,96588.59
2023-02-17T01:23:39.935Z,96592.66
2023-02-17T01:26:29.134Z,96594.28
2023-02-17T01:29:14.869Z,96584.66
2023-02-17T01:32:09.899Z,96580.09
2023-02-17T01:34:55.728Z,96592.50
2023-02-17T01:37:41.599Z,96590.31
2023-02-17T01:40:27.601Z,96572.41
2023-02-17T01:43:31.461Z,96576.25
2023-02-17T01:46:17.940Z,96579.34
2023-02-17T01:49:28.773Z,96587.22
2023-02-17T01:52:18.868Z,96587.66
2023-02-17T01:55:08.851Z,96577.44
2023-02-17T01:57:56.765Z,96577.09
2023-02-17T02:00:43.160Z,96577.63
2023-02-17T02:03:31.436Z,96573.97
2023-02-17T02:06:21.443Z,96586.34
2023-02-17T02:09:19.163Z,96578.19
2023-02-17T02:12:20.650Z,96578.63
2023-02-17T02:15:12.603Z,96574.94
2023-02-17T02:18:04.279Z,96571.25
2023-02-17T02:20:52.565Z,96567.97
2023-02-17T02:23:49.888Z,96567.63
2023-02-17T02:26:58.619Z,96576.28
2023-02-17T02:30:08.868Z,96572.44
2023-02-17T02:33:00.200Z,96574.03
2023-02-17T02:35:55.422Z,96573.00
2023-02-17T02:38:46.390Z,96568.72
2023-02-17T02:41:39.572Z,96562.84
2023-02-17T02:44:25.618Z,96566.06
2023-02-17T02:48:05.985Z,96569.31
2023-02-17T02:51:13.324Z,96567.25
2023-02-17T02:53:59.087Z,96578.72
2023-02-17T02:57:16.436Z,96567.47
2023-02-17T03:00:24.186Z,96569.31
2023-02-17T03:03:26.079Z,96578.72
2023-02-17T03:06:17.270Z,96575.47
2023-02-17T03:09:07.966Z,96573.00
2023-02-17T03:11:57.998Z,96576.72
2023-02-17T03:14:48.578Z,96571.84
2023-02-17T03:17:36.093Z,96583.66
2023-02-17T03:20:22.563Z,96584.13
2023-02-17T03:23:08.340Z,96588.63
2023-02-17T03:25:54.391Z,96578.19
2023-02-17T03:28:40.370Z,96583.75
2023-02-17T03:31:28.473Z,96591.94
2023-02-17T03:34:15.371Z,96585.41
2023-02-17T03:37:01.043Z,96587.06
2023-02-17T03:39:46.710Z,96585.41
2023-02-17T03:42:32.605Z,96589.16
2023-02-17T03:45:18.333Z,96583.81
2023-02-17T03:48:04.507Z,96580.19
2023-02-17T03:50:50.384Z,96591.63
2023-02-17T03:53:36.261Z,96583.06
2023-02-17T03:56:22.156Z,96589.19
2023-02-17T03:59:08.118Z,96582.25
2023-02-17T04:01:54.100Z,96575.50
2023-02-17T04:04:39.832Z,96579.22
2023-02-17T04:07:25.442Z,96582.31
2023-02-17T04:10:11.374Z,96572.09
2023-02-17T04:12:57.499Z,96574.97
2023-02-17T04:15:43.240Z,96574.16
2023-02-17T04:18:28.881Z,96582.16
2023-02-17T04:21:16.662Z,96574.63
2023-02-17T04:24:02.752Z,96576.47
2023-02-17T04:26:48.574Z,96581.19
2023-02-17T04:29:34.117Z,96567.72
2023-02-17T04:32:19.811Z,96575.47
2023-02-17T04:35:05.871Z,96584.28
2023-02-17T04:37:51.914Z,96579.78
2023-02-17T04:40:38.215Z,96573.41
2023-02-17T04:43:26.950Z,96570.16
2023-02-17T04:46:12.904Z,96587.31
2023-02-17T04:48:58.837Z,96588.13
2023-02-17T04:51:44.773Z,96585.25
2023-02-17T04:54:30.423Z,96582.59
2023-02-17T04:57:16.386Z,96587.31
2023-02-17T05:00:02.164Z,96588.78
2023-02-17T05:02:48.088Z,96580.81
2023-02-17T05:05:34.779Z,96579.16
2023-02-17T05:08:20.294Z,96572.69
2023-02-17T05:11:05.942Z,96579.59
2023-02-17T05:13:51.600Z,96584.13
2023-02-17T05:16:37.218Z,96580.06
2023-02-17T05:19:22.853Z,96580.91
2023-02-17T05:22:08.443Z,96579.75
2023-02-17T05:24:54.221Z,96590.94
2023-02-17T05:27:40.087Z,96589.34
2023-02-17T05:30:25.787Z,96587.09
2023-02-17T05:33:11.705Z,96587.09
2023-02-17T05:36:01.721Z,96587.53
2023-02-17T05:38:49.990Z,96588.56
2023-02-17T05:41:35.949Z,96583.84
2023-02-17T05:44:21.787Z,96603.06
2023-02-17T05:47:07.469Z,96597.75
2023-02-17T05:49:55.236Z,96602.63
2023-02-17T05:52:41.722Z,96606.31
2023-02-17T05:55:27.794Z,96616.69
2023-02-17T05:58:13.605Z,96618.94
2023-02-17T06:01:00.443Z,96613.16
2023-02-17T06:03:46.417Z,96620.50
2023-02-17T06:06:32.127Z,96624.56
2023-02-17T06:09:17.796Z,96629.44
2023-02-17T06:12:04.043Z,96627.38
2023-02-17T06:14:49.921Z,96627.75
2023-02-17T06:17:35.539Z,96631.84
2023-02-17T06:20:21.510Z,96630.81
2023-02-17T06:23:07.368Z,96633.47
2023-02-17T06:25:53.303Z,96630.63
2023-02-17T06:28:39.785Z,96630.03
2023-02-17T06:31:26.267Z,96622.94
2023-02-17T06:34:11.959Z,96643.78
2023-02-17T06:36:58.995Z,96629.88
2023-02-17T06:39:44.897Z,96641.13
2023-02-17T06:42:31.698Z,96636.25
2023-02-17T06:45:17.599Z,96643.78
2023-02-17T06:48:03.459Z,96637.25
2023-02-17T06:50:49.936Z,96647.47
2023-02-17T06:53:37.716Z,96645.03
2023-02-17T06:56:23.483Z,96644.59
2023-02-17T06:59:09.613Z,96640.06
2023-02-17T07:01:55.661Z,96650.28
2023-02-17T07:04:42.249Z,96644.53
2023-02-17T07:07:28.615Z,96643.50
2023-02-17T07:10:14.228Z,96648.97
2023-02-17T07:12:59.856Z,96649.38
2023-02-17T07:15:45.647Z,96647.69
2023-02-17T07:18:32.626Z,96648.88
2023-02-17T07:21:18.277Z,96641.88
2023-02-17T07:24:07.471Z,96642.22
2023-02-17T07:26:55.710Z,96647.28
2023-02-17T07:29:45.156Z,96649.88
2023-02-17T07:32:30.836Z,96647.72
2023-02-17T07:35:17.995Z,96643.16
2023-02-17T07:38:03.574Z,96645.53
2023-02-17T07:40:49.324Z,96643.00
2023-02-17T07:43:35.072Z,96640.06
2023-02-17T07:46:22.589Z,96646.72
2023-02-17T07:49:08.533Z,96639.44
2023-02-17T07:51:54.200Z,96648.19
2023-02-17T07:54:40.012Z,96645.41
2023-02-17T07:57:25.869Z,96642.09
2023-02-17T08:00:12.072Z,96632.03
2023-02-17T08:03:00.947Z,96632.78
2023-02-17T08:05:48.256Z,96628.16
2023-02-17T08:08:54.362Z,96627.97
2023-02-17T08:11:59.870Z,96622.91
2023-02-17T08:14:46.198Z,96627.66
2023-02-17T08:17:32.845Z,96630.00
2023-02-17T08:20:18.823Z,96628.63
2023-02-17T08:23:07.970Z,96630.97
2023-02-17T08:25:53.760Z,96633.28
2023-02-17T08:28:40.153Z,96624.94
2023-02-17T08:31:28.509Z,96624.13
2023-02-17T08:34:14.294Z,96620.53
2023-02-17T08:37:01.531Z,96618.31
2023-02-17T08:39:47.367Z,96618.09
2023-02-17T08:42:33.188Z,96622.84
2023-02-17T08:45:19.236Z,96621.41
2023-02-17T08:48:06.433Z,96610.94
2023-02-17T08:50:52.431Z,96604.16
2023-02-17T08:53:38.566Z,96608.19
2023-02-17T08:56:25.796Z,96621.72
2023-02-17T08:59:12.644Z,96607.91
2023-02-17T09:01:58.794Z,96606.50
2023-02-17T09:04:47.235Z,96606.13
2023-02-17T09:07:33.840Z,96598.22
2023-02-17T09:10:20.054Z,96600.56
2023-02-17T09:13:05.985Z,96609.00
2023-02-17T09:15:54.065Z,96592.13
2023-02-17T09:18:39.924Z,96593.56
2023-02-17T09:21:25.677Z,96601.38
2023-02-17T09:24:11.509Z,96592.44
2023-02-17T09:26:58.591Z,96593.75
2023-02-17T09:29:45.585Z,96599.31
2023-02-17T09:32:34.374Z,96588.69
2023-02-17T09:35:21.056Z,96591.50
2023-02-17T09:38:07.357Z,96576.47
2023-02-17T09:40:53.279Z,96591.38
2023-02-17T09:43:39.544Z,96582.53
2023-02-17T09:46:37.426Z,96587.91
2023-02-17T09:49:27.225Z,96586.84
2023-02-17T09:52:58.573Z,96589.25
2023-02-17T09:55:48.549Z,96581.91
2023-02-17T09:58:34.222Z,96581.53
2023-02-17T10:01:33.553Z,96574.94
2023-02-17T10:04:34.562Z,96565.91
2023-02-17T10:07:40.576Z,96562.25
2023-02-17T10:10:31.756Z,96560.75
2023-02-17T10:13:20.629Z,96557.31
2023-02-17T10:16:10.349Z,96559.25
2023-02-17T10:19:03.265Z,96559.56
2023-02-17T10:21:57.913Z,96557.16
2023-02-17T10:24:44.088Z,96552.38
2023-02-17T10:27:53.074Z,96546.44
2023-02-17T10:30:39.113Z,96547.25
2023-02-17T10:33:38.914Z,96534.50
2023-02-17T10:36:54.590Z,96532.56
2023-02-17T10:39:49.588Z,96537.09
2023-02-17T10:42:37.511Z,96524.50
2023-02-17T10:45:31.542Z,96520.84
2023-02-17T10:48:34.265Z,96523.97
2023-02-17T10:51:23.994Z,96524.38
2023-02-17T10:54:51.879Z,96512.91
2023-02-17T10:57:39.516Z,96501.38
2023-02-17T11:00:26.863Z,96495.81
2023-02-17T11:03:20.590Z,96487.78
2023-02-17T11:06:19.787Z,96491.03
2023-02-17T11:09:08.357Z,96489.25
2023-02-17T11:12:06.837Z,96481.69
2023-02-17T11:14:54.496Z,96472.81
2023-02-17T11:17:41.276Z,96458.75
2023-02-17T11:20:33.420Z,96464.56
2023-02-17T11:23:24.279Z,96464.25
2023-02-17T11:26:19.158Z,96463.94
2023-02-17T11:29:17.905Z,96466.03
2023-02-17T11:32:10.705Z,96454.97
2023-02-17T11:34:58.441Z,96463.31
2023-02-17T11:37:45.238Z,96452.75
2023-02-17T11:40:33.053Z,96460.44
2023-02-17T11:43:19.309Z,96445.81
2023-02-17T11:46:23.669Z,96450.06
2023-02-17T11:49:40.607Z,96444.50
2023-02-17T11:52:32.586Z,96450.44
2023-02-17T11:55:56.496Z,96433.81
2023-02-17T11:59:13.758Z,96427.97
2023-02-17T12:02:07.023Z,96425.19
2023-02-17T12:05:14.062Z,96417.53
2023-02-17T12:08:38.398Z,96415.47
2023-02-17T12:11:34.033Z,96406.69
2023-02-17T12:14:49.494Z,96402.25
2023-02-17T12:18:18.139Z,96398.81
2023-02-17T12:21:19.183Z,96394.69
2023-02-17T12:24:12.675Z,96393.78
2023-02-17T12:27:04.830Z,96397.66
2023-02-17T12:30:18.607Z,96386.47
2023-02-17T12:33:23.268Z,96380.78
2023-02-17T12:36:13.267Z,96367.06
2023-02-17T12:39:03.084Z,96370.97
2023-02-17T12:42:10.957Z,96365.91
2023-02-17T12:45:03.007Z,96357.91
2023-02-17T12:47:56.356Z,96359.28
2023-02-17T12:50:53.304Z,96356.19
2023-02-17T12:53:49.393Z,96351.78
2023-02-17T12:56:53.052Z,96346.06
2023-02-17T12:59:45.258Z,96352.16
2023-02-17T13:02:31.433Z,96343.38
2023-02-17T13:05:47.472Z,96328.19
2023-02-17T13:08:40.363Z,96346.44
2023-02-17T13:11:33.777Z,96331.03
2023-02-17T13:14:46.145Z,96337.41
2023-02-17T13:17:39.586Z,96334.16
2023-02-17T13:20:47.252Z,96330.47
2023-02-17T13:23:36.515Z,96334.00
2023-02-17T13:26:22.680Z,96346.97
2023-02-17T13:29:24.003Z,96351.25
2023-02-17T13:32:12.502Z,96355.97
2023-02-17T13:35:32.531Z,96349.34
2023-02-17T13:38:32.168Z,96348.31
2023-02-17T13:41:18.210Z,96345.66
2023-02-17T13:44:30.467Z,96351.13
2023-02-17T13:47:29.208Z,96350.69
2023-02-17T13:50:30.844Z,96352.91
2023-02-17T13:53:31.224Z,96352.03
2023-02-17T13:56:27.170Z,96353.28
2023-02-17T13:59:19.022Z,96346.00
2023-02-17T14:02:35.448Z,96341.47
2023-02-17T14:05:37.346Z,96343.50
2023-02-17T14:08:38.407Z,96328.78
2023-02-17T14:11:31.287Z,96318.66
2023-02-17T14:14:19.234Z,96326.34
2023-02-17T14:17:15.626Z,96319.50
2023-02-17T14:20:02.673Z,96329.59
2023-02-17T14:23:04.315Z,96326.22
2023-02-17T14:25:51.673Z,96326.72
2023-02-17T14:28:37.449Z,96325.50
2023-02-17T14:31:24.586Z,96326.59
2023-02-17T14:34:31.957Z,96315.78
2023-02-17T14:37:22.104Z,96317.09
2023-02-17T14:40:16.987Z,96324.41
2023-02-17T14:43:02.887Z,96315.63
2023-02-17T14:45:49.280Z,96317.31
2023-02-17T14:48:35.134Z,96321.19
2023-02-17T14:51:23.373Z,96319.78
2023-02-17T14:54:15.330Z,96321.59
2023-02-17T14:57:11.649Z,96319.47
2023-02-17T14:59:58.080Z,96323.84
2023-02-17T15:02:43.951Z,96314.88
2023-02-17T15:05:29.913Z,96321.34
2023-02-17T15:08:19.430Z,96305.81
2023-02-17T15:11:06.023Z,96311.22
2023-02-17T15:13:52.208Z,96306.22
2023-02-17T15:16:37.981Z,96314.34
2023-02-17T15:19:24.777Z,96320.09
2023-02-17T15:22:12.226Z,96310.78
2023-02-17T15:24:58.003Z,96317.28
2023-02-17T15:27:46.563Z,96322.19
2023-02-17T15:30:33.012Z,96314.31
2023-02-17T15:33:20.867Z,96311.88
2023-02-17T15:36:07.408Z,96302.69
2023-02-17T15:38:54.106Z,96303.41
2023-02-17T15:41:41.648Z,96305.59
2023-02-17T15:44:38.840Z,96312.59
2023-02-17T15:47:24.603Z,96314.47
2023-02-17T15:50:28.581Z,96315.03
2023-02-17T15:53:14.284Z,96323.41
2023-02-17T15:56:02.906Z,96321.56
2023-02-17T15:58:49.984Z,96333.63
2023-02-17T16:01:36.390Z,96325.84
2023-02-17T16:04:22.682Z,96334.09
2023-02-17T16:07:08.797Z,96332.69
2023-02-17T16:09:54.838Z,96320.03
2023-02-17T16:12:44.234Z,96337.34
2023-02-17T16:15:31.751Z,96351.41
2023-02-17T16:18:23.887Z,96340.56
2023-02-17T16:21:11.612Z,96343.75
2023-02-17T16:23:59.902Z,96346.59
2023-02-17T16:26:46.360Z,96361.91
2023-02-17T16:29:32.003Z,96367.50
2023-02-17T16:32:20.013Z,96357.75
2023-02-17T16:35:06.529Z,96372.78
2023-02-17T16:38:01.364Z,96365.91
2023-02-17T16:40:49.104Z,96379.63
2023-02-17T16:43:35.401Z,96384.06
2023-02-17T16:46:33.651Z,96380.41
2023-02-17T16:49:19.780Z,96383.00
2023-02-17T16:52:12.946Z,96383.16
2023-02-17T16:54:59.029Z,96377.63
2023-02-17T16:57:46.056Z,96384.19
2023-02-17T17:00:33.224Z,96382.16
2023-02-17T17:03:19.817Z,96382.81
2023-02-17T17:06:18.647Z,96386.16
2023-02-17T17:09:05.710Z,96392.19
2023-02-17T17:11:51.813Z,96389.31
2023-02-17T17:14:37.554Z,96390.25
2023-02-17T17:17:23.447Z,96390.94
2023-02-17T17:20:19.420Z,96400.47
2023-02-17T17:23:08.686Z,96397.09
2023-02-17T17:25:57.310Z,96399.78
2023-02-17T17:28:43.687Z,96405.81
2023-02-17T17:31:29.997Z,96407.25
2023-02-17T17:34:16.060Z,96403.84
2023-02-17T17:37:02.639Z,96415.53
2023-02-17T17:39:48.613Z,96414.78
2023-02-17T17:42:37.835Z,96417.53
2023-02-17T17:45:25.324Z,96415.44
2023-02-17T17:48:15.756Z,96419.78
2023-02-17T17:51:01.981Z,96427.13
2023-02-17T17:53:51.650Z,96422.81
2023-02-17T17:56:42.107Z,96423.16
2023-02-17T17:59:28.497Z,96425.91
2023-02-17T18:02:21.333Z,96434.84
2023-02-17T18:05:08.092Z,96429.25
2023-02-17T18:07:54.055Z,96443.56
2023-02-17T18:10:41.234Z,96443.63
2023-02-17T18:13:27.214Z,96442.03
2023-02-17T18:16:14.282Z,96431.56
2023-02-17T18:19:01.844Z,96444.50
2023-02-17T18:21:48.191Z,96433.19
2023-02-17T18:24:34.707Z,96448.31
2023-02-17T18:27:22.012Z,96449.38
2023-02-17T18:30:10.074Z,96441.84
2023-02-17T18:32:56.604Z,96447.78
2023-02-17T18:35:45.593Z,96450.50
2023-02-17T18:38:31.690Z,96444.56
2023-02-17T18:41:24.208Z,96449.97
2023-02-17T18:44:13.829Z,96452.16
2023-02-17T18:46:59.917Z,96443.25
2023-02-17T18:49:45.773Z,96447.00
2023-02-17T18:52:31.722Z,96452.69
2023-02-17T18:55:17.793Z,96449.97
2023-02-17T18:58:04.929Z,96448.34
2023-02-17T19:00:51.182Z,96455.06
2023-02-17T19:03:37.261Z,96454.53
2023-02-17T19:06:26.259Z,96456.44
2023-02-17T19:09:12.441Z,96456.94
2023-02-17T19:11:58.582Z,96465.84
2023-02-17T19:14:45.021Z,96457.19
2023-02-17T19:17:31.174Z,96457.47
2023-02-17T19:20:17.244Z,96460.66
2023-02-17T19:23:03.520Z,96468.19
2023-02-17T19:25:49.399Z,96464.44
2023-02-17T19:28:36.895Z,96468.19
2023-02-17T19:31:23.411Z,96463.34
2023-02-17T19:34:09.448Z,96460.66
2023-02-17T19:36:55.818Z,96472.47
2023-02-17T19:39:41.806Z,96471.94
2023-02-17T19:42:28.509Z,96474.63
2023-02-17T19:45:14.767Z,96487.53
2023-02-17T19:48:01.153Z,96476.19
2023-02-17T19:50:47.446Z,96483.75
2023-02-17T19:53:33.526Z,96478.09
2023-02-17T19:56:23.346Z,96478.91
2023-02-17T19:59:09.482Z,96478.34
2023-02-17T20:01:55.753Z,96482.88
2023-02-17T20:04:42.207Z,96484.22
2023-02-17T20:07:29.541Z,96494.44
2023-02-17T20:10:15.420Z,96487.69
2023-02-17T20:13:01.301Z,96489.03
2023-02-17T20:15:46.997Z,96481.75
2023-02-17T20:18:37.457Z,96491.88
2023-02-17T20:21:26.345Z,96488.94
2023-02-17T20:24:14.233Z,96487.28
2023-02-17T20:27:00.100Z,96492.09
2023-02-17T20:29:46.144Z,96489.41
2023-02-17T20:32:31.955Z,96490.69
2023-02-17T20:35:17.611Z,96498.41
2023-02-17T20:38:05.393Z,96502.16
2023-02-17T20:40:51.581Z,96501.09
2023-02-17T20:43:38.378Z,96498.34
2023-02-17T20:46:26.805Z,96499.66
2023-02-17T20:49:13.876Z,96494.53
2023-02-17T20:51:59.900Z,96499.91
2023-02-17T20:54:46.344Z,96501.22
2023-02-17T20:57:32.187Z,96487.97
2023-02-17T21:00:20.768Z,96502.47
2023-02-17T21:03:06.773Z,96503.50
2023-02-17T21:05:53.004Z,96503.41
2023-02-17T21:08:38.839Z,96508.19
2023-02-17T21:11:25.225Z,96504.88
2023-02-17T21:14:11.488Z,96499.94
2023-02-17T21:16:57.771Z,96505.28
2023-02-17T21:19:43.927Z,96504.16
2023-02-17T21:22:29.643Z,96508.69
2023-02-17T21:25:15.395Z,96515.94
2023-02-17T21:28:01.016Z,96505.66
2023-02-17T21:30:47.547Z,96508.81
2023-02-17T21:33:34.239Z,96513.06
2023-02-17T21:36:19.966Z,96507.00
2023-02-17T21:39:06.180Z,96498.41
2023-02-17T21:41:53.960Z,96510.22
2023-02-17T21:44:52.354Z,96511.19
2023-02-17T21:47:38.388Z,96517.06
2023-02-17T21:50:24.196Z,96525.09
2023-02-17T21:53:10.048Z,96518.06
2023-02-17T21:55:59.071Z,96520.19
2023-02-17T21:58:50.114Z,96523.59
2023-02-17T22:01:37.538Z,96524.41
2023-02-17T22:04:26.630Z,96513.31
2023-02-17T22:07:15.700Z,96527.03
2023-02-17T22:10:02.221Z,96524.28
2023-02-17T22:12:48.273Z,96525.28
2023-02-17T22:15:35.088Z,96512.34
2023-02-17T22:18:21.268Z,96521.66
2023-02-17T22:21:11.489Z,96514.78
2023-02-17T22:24:01.557Z,96508.81
2023-02-17T22:26:48.452Z,96511.59
2023-02-17T22:29:35.445Z,96497.22
2023-02-17T22:32:21.476Z,96521.31
2023-02-17T22:35:08.208Z,96513.19
2023-02-17T22:37:54.366Z,96515.28
2023-02-17T22:40:41.476Z,96516.28
2023-02-17T22:43:27.511Z,96519.69
2023-02-17T22:46:18.744Z,96497.53
2023-02-17T22:49:05.422Z,96505.25
2023-02-17T22:51:52.647Z,96513.19
2023-02-17T22:54:39.003Z,96516.28
2023-02-17T22:57:25.242Z,96506.22
2023-02-17T23:00:11.418Z,96512.38
2023-02-17T23:02:57.322Z,96511.22
2023-02-17T23:05:43.897Z,96507.69
2023-02-17T23:08:30.006Z,96505.25
2023-02-17T23:11:39.957Z,96503.63
2023-02-17T23:14:29.731Z,96507.91
2023-02-17T23:17:15.610Z,96510.00
2023-02-17T23:20:02.520Z,96512.69
2023-02-17T23:22:48.208Z,96515.25
2023-02-17T23:25:35.589Z,96506.00
2023-02-17T23:28:24.088Z,96499.03
2023-02-17T23:31:10.739Z,96504.63
2023-02-17T23:33:56.596Z,96499.78
2023-02-17T23:36:43.772Z,96495.78
2023-02-17T23:39:29.899Z,96488.50
2023-02-17T23:42:17.097Z,96492.06
2023-02-17T23:45:04.262Z,96481.06
2023-02-17T23:47:50.369Z,96490.19
2023-02-17T23:50:36.034Z,96480.25
2023-02-17T23:53:22.013Z,96479.44
2023-02-17T23:56:29.439Z,96472.94
2023-02-17T23:59:15.373Z,96473.16
